Time;durP1;ratioP1;P1;durP2;ratioP2;P2;SDS_P1;SDS_P2;PMS_P1;PMS_P2;Temp;Humidity;BMP_temperature;BMP_pressure;BME280_temperature;BME280_humidity;BME280_pressure;Samples;Min_cycle;Max_cycle;Signal;HPM_P1;HPM_P2
2022/08/04 00:01:32;;;;;;;8.07;4.63;;;;;;;27.89;49.62;99484.56;5093262;28;20183;-82
2022/08/04 00:04:02;;;;;;;6.17;3.87;;;;;;;27.77;49.04;99476.06;5092606;28;20211;-83
2022/08/04 00:06:41;;;;;;;4.07;3.70;;;;;;;27.75;49.70;99472.81;5093114;28;20274;-82
2022/08/04 00:09:13;;;;;;;4.63;4.33;;;;;;;27.87;49.04;99481.31;5092623;28;20183;-83
2022/08/04 00:11:45;;;;;;;5.83;4.13;;;;;;;27.76;49.02;99480.72;5093724;28;20291;-81
2022/08/04 00:14:14;;;;;;;3.37;3.20;;;;;;;27.69;47.46;99490.44;5092837;28;20278;-80
2022/08/04 00:16:43;;;;;;;4.10;3.50;;;;;;;27.52;47.47;99485.63;5092931;28;20244;-78
2022/08/04 00:19:12;;;;;;;4.20;4.00;;;;;;;27.46;48.79;99486.03;5092440;28;20203;-77
2022/08/04 00:21:43;;;;;;;3.80;3.40;;;;;;;27.54;49.79;99482.59;5092963;28;20278;-77
2022/08/04 00:24:12;;;;;;;4.73;3.40;;;;;;;27.58;49.13;99486.31;5092282;28;20207;-76
2022/08/04 00:26:41;;;;;;;3.70;3.50;;;;;;;27.52;48.48;99485.63;5092600;28;20320;-78
2022/08/04 00:29:08;;;;;;;3.70;3.40;;;;;;;27.59;48.93;99487.94;5092215;28;20658;-81
2022/08/04 00:31:36;;;;;;;3.70;3.40;;;;;;;27.55;48.66;99489.66;5092647;28;20276;-80
2022/08/04 00:34:04;;;;;;;4.17;3.77;;;;;;;27.49;48.09;99499.91;5092669;28;20195;-80
2022/08/04 00:36:32;;;;;;;3.80;3.60;;;;;;;27.43;48.11;99492.09;5092130;28;20218;-81
2022/08/04 00:38:59;;;;;;;4.07;3.87;;;;;;;27.42;48.66;99490.50;5092075;28;20194;-79
2022/08/04 00:41:37;;;;;;;4.10;3.90;;;;;;;27.36;49.59;99492.53;5092738;28;20191;-79
2022/08/04 00:44:25;;;;;;;3.83;3.53;;;;;;;27.46;49.58;99496.97;5092122;28;20767;-82
2022/08/04 00:47:08;;;;;;;4.40;4.10;;;;;;;27.43;48.83;99503.03;5092682;28;20312;-81
2022/08/04 00:50:03;;;;;;;4.27;4.07;;;;;;;27.20;50.27;99510.31;5093193;28;20579;-79
2022/08/04 00:52:42;;;;;;;3.90;3.70;;;;;;;27.15;50.35;99496.75;5092014;28;20187;-81
2022/08/04 00:55:33;;;;;;;3.80;3.70;;;;;;;27.24;50.41;99494.97;5092004;28;20193;-79
2022/08/04 00:58:19;;;;;;;4.20;3.90;;;;;;;27.19;51.07;99502.44;5091936;28;20636;-83
2022/08/04 01:00:55;;;;;;;4.60;4.30;;;;;;;27.17;50.78;99504.63;5091976;28;20654;-79
2022/08/04 01:03:32;;;;;;;4.13;3.93;;;;;;;27.14;50.61;99505.25;5091862;28;20298;-81
2022/08/04 01:06:09;;;;;;;5.00;4.70;;;;;;;27.12;51.03;99502.03;5092459;28;20187;-82
2022/08/04 01:08:55;;;;;;;5.73;4.10;;;;;;;27.11;50.92;99503.13;5092656;28;20195;-81
2022/08/04 01:11:38;;;;;;;6.60;4.50;;;;;;;27.18;49.92;99507.06;5092720;28;20183;-80
2022/08/04 01:14:21;;;;;;;4.50;4.10;;;;;;;27.13;50.39;99500.91;5092704;28;20255;-80
2022/08/04 01:16:52;;;;;;;5.93;5.23;;;;;;;27.07;50.40;99504.84;5091868;28;20187;-81
2022/08/04 01:19:51;;;;;;;5.43;4.73;;;;;;;26.85;51.50;99502.81;5092568;28;20187;-82
2022/08/04 01:22:29;;;;;;;4.03;3.83;;;;;;;26.66;52.40;99493.91;5092325;28;20240;-81
2022/08/04 01:25:11;;;;;;;4.90;4.60;;;;;;;26.60;53.28;99510.66;5092318;28;20192;-81
2022/08/04 01:27:58;;;;;;;4.90;4.40;;;;;;;26.72;54.23;99503.63;5092012;28;20188;-79
2022/08/04 01:30:27;;;;;;;4.93;4.17;;;;;;;26.81;53.25;99501.00;5096238;28;20192;-79
2022/08/04 01:33:00;;;;;;;4.90;4.00;;;;;;;26.81;53.85;99498.25;5095498;28;20660;-79
2022/08/04 01:35:31;;;;;;;4.63;4.43;;;;;;;26.88;53.26;99506.84;5095957;28;20248;-79
2022/08/04 01:38:01;;;;;;;5.20;4.90;;;;;;;26.91;53.16;99506.25;5096248;28;20192;-81
2022/08/04 01:40:29;;;;;;;4.40;4.07;;;;;;;27.01;52.99;99509.59;5095386;28;20193;-82
2022/08/04 01:43:00;;;;;;;5.03;4.70;;;;;;;26.98;52.70;99512.94;5095798;28;20223;-82
2022/08/04 01:45:29;;;;;;;5.10;4.70;;;;;;;26.92;52.18;99510.59;5095243;28;20241;-82
2022/08/04 01:47:57;;;;;;;4.90;4.50;;;;;;;26.91;53.40;99514.44;5095490;28;20240;-83
2022/08/04 01:50:26;;;;;;;4.80;4.40;;;;;;;26.88;52.89;99509.59;5095223;28;20199;-82
2022/08/04 01:52:55;;;;;;;5.07;4.77;;;;;;;26.85;53.31;99507.44;5095435;28;20244;-80
2022/08/04 01:55:22;;;;;;;5.10;4.53;;;;;;;26.90;53.13;99496.47;5095075;28;20668;-80
2022/08/04 01:57:51;;;;;;;9.07;4.53;;;;;;;26.82;53.59;99491.72;5095156;28;20223;-80
2022/08/04 02:00:21;;;;;;;4.93;4.53;;;;;;;26.88;53.88;99501.41;5095408;28;20195;-80
2022/08/04 02:02:50;;;;;;;4.93;4.47;;;;;;;26.88;53.88;99490.50;5094832;28;20191;-79
2022/08/04 02:05:19;;;;;;;4.90;4.40;;;;;;;26.98;53.59;99495.75;5095790;28;20184;-80
2022/08/04 02:08:09;;;;;;;4.50;4.10;;;;;;;26.99;53.62;99497.38;5095181;28;20199;-81
2022/08/04 02:10:53;;;;;;;5.30;4.80;;;;;;;27.05;53.66;99496.16;5094941;28;20647;-78
2022/08/04 02:13:23;;;;;;;5.47;4.83;;;;;;;27.02;53.48;99499.47;5094773;28;20194;-78
2022/08/04 02:16:01;;;;;;;4.80;4.50;;;;;;;26.92;53.42;99497.78;5095582;28;20271;-78
2022/08/04 02:18:31;;;;;;;6.00;4.73;;;;;;;26.86;53.76;99498.19;5094925;28;20253;-78
2022/08/04 02:21:00;;;;;;;6.57;5.13;;;;;;;26.74;54.23;99497.88;5094677;28;20700;-78
2022/08/04 02:23:35;;;;;;;5.60;4.97;;;;;;;26.67;55.15;99511.91;5094455;28;20744;-78
2022/08/04 02:26:03;;;;;;;6.23;5.53;;;;;;;26.75;55.58;99516.63;5094590;28;20179;-78
2022/08/04 02:28:35;;;;;;;5.27;4.77;;;;;;;26.81;55.44;99511.88;5094715;28;20248;-76
2022/08/04 02:31:15;;;;;;;5.73;5.20;;;;;;;26.88;54.56;99512.31;5094509;28;20647;-77
2022/08/04 02:33:45;;;;;;;5.20;4.70;;;;;;;26.88;54.39;99512.31;5094751;28;20187;-77
2022/08/04 02:36:17;;;;;;;5.90;4.77;;;;;;;26.85;55.27;99508.28;5094629;28;20676;-76
2022/08/04 02:38:55;;;;;;;5.60;5.10;;;;;;;26.89;55.18;99508.47;5095415;28;20215;-77
2022/08/04 02:41:24;;;;;;;6.60;5.07;;;;;;;26.84;54.77;99506.66;5094798;28;20187;-78
2022/08/04 02:43:55;;;;;;;5.93;4.90;;;;;;;26.86;54.95;99509.09;5094942;28;20223;-80
2022/08/04 02:46:22;;;;;;;6.90;5.40;;;;;;;26.85;55.37;99507.44;5094171;28;20248;-77
2022/08/04 02:48:53;;;;;;;12.27;5.47;;;;;;;26.91;54.98;99509.00;5094076;28;20671;-79
2022/08/04 02:51:25;;;;;;;4.80;4.50;;;;;;;26.95;54.51;99508.06;5095181;28;20190;-76
2022/08/04 02:53:54;;;;;;;7.00;4.90;;;;;;;26.96;54.25;99508.88;5094863;28;20191;-78
2022/08/04 02:56:22;;;;;;;8.10;5.27;;;;;;;26.92;54.56;99516.88;5094489;28;20191;-78
2022/08/04 02:58:58;;;;;;;7.67;4.80;;;;;;;26.82;53.38;99508.06;5093759;28;20783;-78
2022/08/04 03:01:25;;;;;;;5.57;5.17;;;;;;;26.67;55.35;99511.06;5095053;28;20187;-77
2022/08/04 03:04:06;;;;;;;5.10;4.60;;;;;;;26.63;54.98;99508.16;5094478;28;20233;-78
2022/08/04 03:07:18;;;;;;;4.30;4.00;;;;;;;26.62;54.66;99514.69;5093728;28;20704;-78
2022/08/04 03:10:26;;;;;;;4.20;3.90;;;;;;;26.66;55.19;99514.91;5094808;28;20180;-78
2022/08/04 03:13:30;;;;;;;5.03;4.50;;;;;;;26.62;55.51;99525.59;5031368;28;20251;-78
2022/08/04 03:16:47;;;;;;;4.70;4.30;;;;;;;26.68;55.36;99520.88;5075034;28;20191;-78
2022/08/04 03:19:46;;;;;;;4.30;4.10;;;;;;;26.71;54.96;99517.53;5094218;28;20187;-79
2022/08/04 03:22:32;;;;;;;4.80;4.40;;;;;;;26.79;54.89;99522.31;5093393;28;20187;-78
2022/08/04 03:25:31;;;;;;;4.80;4.60;;;;;;;26.80;54.81;99526.63;5093824;28;20219;-79
2022/08/04 03:28:32;;;;;;;5.47;4.03;;;;;;;26.83;54.46;99512.41;5072717;28;20277;-79
2022/08/04 03:31:21;;;;;;;4.90;4.50;;;;;;;26.87;54.67;99519.66;5093936;28;20188;-80
2022/08/04 03:34:10;;;;;;;5.13;4.80;;;;;;;26.81;53.89;99518.16;5093502;28;20203;-80
2022/08/04 03:37:01;;;;;;;4.60;4.20;;;;;;;26.80;54.74;99526.63;5093221;28;20183;-81
2022/08/04 03:39:50;;;;;;;6.37;4.93;;;;;;;26.88;54.27;99523.22;5093158;28;20350;-80
2022/08/04 03:42:45;;;;;;;4.77;4.37;;;;;;;26.96;53.94;99519.78;5093814;28;20199;-81
2022/08/04 03:45:52;;;;;;;4.97;4.30;;;;;;;27.00;53.69;99526.25;5093285;28;20625;-80
2022/08/04 03:48:53;;;;;;;5.40;4.90;;;;;;;27.01;53.61;99523.25;5092928;28;20245;-79
2022/08/04 03:54:55;;;;;;;5.17;4.87;;;;;;;27.24;52.93;99516.00;5093169;28;20178;-79
2022/08/04 03:58:08;;;;;;;5.73;4.67;;;;;;;27.34;52.48;99519.31;5092661;28;20732;-83
2022/08/04 04:00:45;;;;;;;4.83;4.53;;;;;;;27.38;52.31;99527.69;5086896;28;20221;-84
2022/08/04 04:03:52;;;;;;;5.77;4.63;;;;;;;27.51;51.88;99516.75;5092783;28;20647;-81
2022/08/04 04:06:55;;;;;;;4.50;4.20;;;;;;;28.14;50.14;99524.91;5092648;28;20727;-81
2022/08/04 04:09:49;;;;;;;6.33;5.03;;;;;;;28.83;47.53;99530.53;5080216;28;20191;-81
2022/08/04 04:12:41;;;;;;;4.10;3.83;;;;;;;29.15;46.24;99532.13;5093442;28;20270;-81
2022/08/04 04:15:40;;;;;;;4.77;4.30;;;;;;;29.11;46.21;99528.41;5092524;28;20667;-81
2022/08/04 04:18:22;;;;;;;4.23;3.93;;;;;;;29.35;45.71;99534.31;5086704;28;20194;-81
2022/08/04 04:21:16;;;;;;;4.33;4.03;;;;;;;29.73;44.55;99537.31;5092980;28;20607;-81
2022/08/04 04:24:24;;;;;;;4.57;3.97;;;;;;;30.16;43.74;99544.47;5092251;28;20208;-81
2022/08/04 04:26:58;;;;;;;5.77;4.60;;;;;;;30.30;43.29;99536.91;5075202;28;20256;-79
2022/08/04 04:29:57;;;;;;;6.53;5.87;;;;;;;30.85;41.74;99543.25;5093441;28;20603;-82
2022/08/04 04:32:41;;;;;;;4.63;4.30;;;;;;;31.14;40.41;99548.78;5092296;28;20667;-81
2022/08/04 04:35:22;;;;;;;4.93;4.30;;;;;;;31.66;39.58;99543.84;5089684;28;20187;-80
2022/08/04 04:38:25;;;;;;;9.20;4.80;;;;;;;32.11;39.06;99553.91;5070178;28;20237;-79
2022/08/04 04:41:05;;;;;;;5.57;4.40;;;;;;;32.36;38.45;99555.66;5071559;28;20663;-79
2022/08/04 04:43:55;;;;;;;4.60;4.30;;;;;;;32.70;37.88;99552.56;5070194;28;20188;-79
2022/08/04 04:46:36;;;;;;;4.87;4.40;;;;;;;33.18;36.75;99562.88;5071663;28;20180;-81
2022/08/04 04:49:12;;;;;;;4.87;4.30;;;;;;;33.32;36.53;99557.06;5069160;28;20180;-80
2022/08/04 04:51:44;;;;;;;5.33;3.60;;;;;;;33.55;35.61;99563.75;5072656;28;20317;-80
2022/08/04 04:54:24;;;;;;;21.43;4.90;;;;;;;33.87;35.44;99562.78;5072011;28;20258;-81
2022/08/04 04:57:00;;;;;;;5.33;4.30;;;;;;;33.30;36.49;99554.63;5071792;28;20184;-77
2022/08/04 04:59:31;;;;;;;5.77;4.33;;;;;;;33.83;35.39;99561.88;5072383;28;20285;-82
2022/08/04 05:02:36;;;;;;;4.23;3.90;;;;;;;34.16;34.86;99559.75;5072127;28;20279;-82
2022/08/04 05:05:27;;;;;;;4.87;4.13;;;;;;;34.18;34.74;99551.91;5076843;28;20276;-84
2022/08/04 05:08:16;;;;;;;4.40;4.00;;;;;;;34.38;34.58;99567.50;5075847;28;20668;-75
2022/08/04 05:11:00;;;;;;;4.17;3.87;;;;;;;34.23;34.65;99566.28;5076160;28;20595;-75
2022/08/04 05:13:35;;;;;;;6.77;3.40;;;;;;;34.37;34.18;99572.22;5076442;28;20250;-75
2022/08/04 05:16:09;;;;;;;5.17;3.63;;;;;;;34.42;33.96;99562.91;5075775;28;20679;-75
2022/08/04 05:18:40;;;;;;;5.53;3.50;;;;;;;34.44;33.97;99566.09;5075467;28;20249;-75
2022/08/04 05:21:19;;;;;;;4.57;3.08;;;;;;;34.89;32.92;99572.91;5075325;28;20188;-76
2022/08/04 05:23:53;;;;;;;7.03;3.47;;;;;;;35.23;31.86;99571.44;5075851;28;20724;-73
2022/08/04 05:26:26;;;;;;;4.00;3.45;;;;;;;35.24;31.75;99578.53;5076109;28;20249;-75
2022/08/04 05:28:57;;;;;;;4.88;3.15;;;;;;;35.51;31.49;99583.19;5075154;28;20234;-73
2022/08/04 05:31:29;;;;;;;6.88;3.40;;;;;;;35.50;31.32;99582.41;5075060;28;20184;-76
2022/08/04 05:34:02;;;;;;;3.90;3.47;;;;;;;34.77;32.55;99575.72;5071329;28;20191;-73
2022/08/04 05:36:35;;;;;;;3.92;3.13;;;;;;;33.94;33.50;99579.56;5075016;28;20195;-73
2022/08/04 05:39:03;;;;;;;4.32;3.40;;;;;;;32.89;35.27;99574.91;5075274;28;20309;-74
2022/08/04 05:41:33;;;;;;;9.90;3.43;;;;;;;32.11;36.91;99572.34;5075500;28;20256;-80
2022/08/04 05:44:02;;;;;;;4.03;3.37;;;;;;;31.68;38.52;99575.34;5075096;28;20192;-70
2022/08/04 05:46:30;;;;;;;3.70;3.50;;;;;;;31.36;39.10;99580.72;5075001;28;20679;-68
2022/08/04 05:48:58;;;;;;;3.50;3.30;;;;;;;31.01;39.68;99570.97;5075052;28;20184;-69
2022/08/04 05:51:26;;;;;;;7.27;4.23;;;;;;;30.79;40.45;99574.72;5075262;28;20200;-68
2022/08/04 05:53:54;;;;;;;6.23;4.10;;;;;;;30.51;40.68;99573.47;5075212;28;20196;-69
2022/08/04 05:56:22;;;;;;;6.63;3.50;;;;;;;30.19;41.83;99576.72;5074804;28;20696;-69
2022/08/04 05:58:50;;;;;;;9.20;4.40;;;;;;;30.30;42.08;99574.47;5075314;28;20281;-67
2022/08/04 06:01:18;;;;;;;4.57;3.40;;;;;;;30.94;40.93;99565.97;5074914;28;20238;-69
2022/08/04 06:03:48;;;;;;;5.13;3.70;;;;;;;31.64;39.39;99576.38;5074799;28;20196;-68
2022/08/04 06:06:19;;;;;;;6.27;3.60;;;;;;;32.22;37.90;99573.56;5074756;28;20627;-67
2022/08/04 06:08:46;;;;;;;8.00;3.60;;;;;;;32.59;36.48;99575.34;5074433;28;20717;-67
2022/08/04 06:11:14;;;;;;;3.37;3.07;;;;;;;32.79;36.52;99569.78;5074505;28;20664;-72
2022/08/04 06:13:43;;;;;;;5.57;3.50;;;;;;;32.89;35.99;99563.88;5074609;28;20256;-71
2022/08/04 06:16:13;;;;;;;6.80;3.83;;;;;;;33.22;35.56;99577.56;5074480;28;20204;-69
2022/08/04 06:18:43;;;;;;;5.13;3.57;;;;;;;33.12;35.90;99576.06;5074655;28;20245;-69
2022/08/04 06:21:12;;;;;;;13.73;3.73;;;;;;;33.46;35.34;99571.28;5074631;28;20200;-69
2022/08/04 06:23:43;;;;;;;2.90;2.70;;;;;;;33.82;34.51;99574.06;5074451;28;20199;-70
2022/08/04 06:26:17;;;;;;;4.60;2.90;;;;;;;34.10;33.98;99572.16;5074428;28;20586;-69
2022/08/04 06:28:46;;;;;;;3.17;2.97;;;;;;;34.38;33.54;99573.84;5074157;28;20662;-69
2022/08/04 06:31:20;;;;;;;5.78;2.88;;;;;;;34.51;33.13;99571.81;5074098;28;20250;-68
2022/08/04 06:33:48;;;;;;;3.72;3.08;;;;;;;34.63;33.64;99571.75;5074337;28;20179;-68
2022/08/04 06:36:16;;;;;;;3.70;3.33;;;;;;;34.83;32.95;99562.47;5074808;28;20203;-68
2022/08/04 06:38:45;;;;;;;2.60;2.50;;;;;;;34.93;32.74;99562.75;5074160;28;20192;-69
2022/08/04 06:41:11;;;;;;;5.28;3.28;;;;;;;34.92;32.75;99565.88;5074281;28;20682;-68
2022/08/04 06:43:39;;;;;;;4.32;2.97;;;;;;;35.09;32.86;99568.28;5074103;28;20195;-69
2022/08/04 06:46:09;;;;;;;3.10;2.90;;;;;;;35.23;32.55;99561.16;5073971;28;20347;-69
2022/08/04 06:48:36;;;;;;;13.20;3.80;;;;;;;35.37;31.97;99560.75;5074181;28;20211;-68
2022/08/04 06:51:04;;;;;;;3.80;3.22;;;;;;;35.60;31.95;99570.78;5073785;28;20196;-68
2022/08/04 06:53:31;;;;;;;6.60;3.13;;;;;;;35.42;31.68;99563.22;5073604;28;20199;-70
2022/08/04 06:56:01;;;;;;;2.67;2.50;;;;;;;35.18;31.39;99563.38;5073660;28;20229;-70
2022/08/04 06:58:30;;;;;;;3.20;3.08;;;;;;;35.05;31.95;99559.09;5073806;28;20231;-70
2022/08/04 07:01:00;;;;;;;3.45;3.15;;;;;;;34.89;31.83;99561.06;5073524;28;20196;-70
2022/08/04 07:03:28;;;;;;;3.10;2.90;;;;;;;34.94;31.73;99564.34;5073549;28;20648;-70
2022/08/04 07:05:55;;;;;;;3.20;3.03;;;;;;;34.96;31.50;99562.06;5074453;28;20231;-70
2022/08/04 07:08:22;;;;;;;5.45;3.10;;;;;;;35.05;31.56;99556.34;5073200;28;20256;-70
2022/08/04 07:10:52;;;;;;;3.50;3.20;;;;;;;35.08;31.42;99559.22;5073292;28;20188;-70
2022/08/04 07:13:21;;;;;;;3.60;3.08;;;;;;;34.92;31.35;99574.16;5073956;28;20196;-70
2022/08/04 07:15:48;;;;;;;3.28;3.10;;;;;;;34.78;31.79;99562.72;5074105;28;20192;-69
2022/08/04 07:18:15;;;;;;;3.58;3.28;;;;;;;34.78;31.78;99566.25;5073791;28;20611;-68
2022/08/04 07:20:42;;;;;;;3.03;2.88;;;;;;;34.58;31.90;99566.50;5073115;28;20249;-69
2022/08/04 07:23:12;;;;;;;3.22;3.00;;;;;;;34.71;31.85;99559.75;5073238;28;20263;-69
2022/08/04 07:25:39;;;;;;;7.75;3.33;;;;;;;34.61;32.03;99565.78;5072671;28;20277;-68
2022/08/04 07:28:06;;;;;;;4.53;3.35;;;;;;;34.87;31.72;99558.63;5072952;28;20192;-70
2022/08/04 07:30:35;;;;;;;3.63;3.42;;;;;;;35.04;31.48;99560.28;5072762;28;20192;-69
2022/08/04 07:33:02;;;;;;;3.92;3.63;;;;;;;35.12;31.37;99559.28;5072830;28;20191;-69
2022/08/04 07:35:30;;;;;;;8.65;3.60;;;;;;;35.02;30.91;99560.63;5072674;28;20192;-69
2022/08/04 07:37:58;;;;;;;5.13;3.35;;;;;;;34.81;31.86;99553.72;5072701;28;20192;-68
2022/08/04 07:40:24;;;;;;;3.25;3.15;;;;;;;34.90;31.53;99562.69;5072587;28;20242;-70
2022/08/04 07:42:52;;;;;;;3.58;3.38;;;;;;;35.04;31.10;99555.56;5072975;28;20280;-70
2022/08/04 07:45:20;;;;;;;3.42;3.20;;;;;;;35.13;31.05;99560.88;5072775;28;20215;-69
2022/08/04 07:47:49;;;;;;;3.05;2.80;;;;;;;35.27;31.13;99555.75;5072610;28;20192;-69
2022/08/04 07:50:16;;;;;;;7.50;3.30;;;;;;;35.33;31.18;99559.84;5072624;28;20360;-69
2022/08/04 07:52:44;;;;;;;3.50;3.20;;;;;;;35.16;30.71;99555.47;5072150;28;20187;-69
2022/08/04 07:55:11;;;;;;;14.57;3.05;;;;;;;35.33;30.78;99560.66;5072106;28;20207;-69
2022/08/04 07:57:38;;;;;;;4.72;3.92;;;;;;;34.89;31.58;99555.53;5069965;28;20309;-69
2022/08/04 08:00:06;;;;;;;3.55;3.20;;;;;;;34.87;31.37;99552.34;5070490;28;20261;-69
2022/08/04 08:02:34;;;;;;;3.55;3.00;;;;;;;35.07;31.23;99551.28;5068937;28;20191;-70
2022/08/04 08:05:04;;;;;;;4.05;3.17;;;;;;;35.10;30.78;99553.31;5064387;28;20707;-70
2022/08/04 08:07:31;;;;;;;3.35;3.15;;;;;;;35.12;30.59;99548.25;5060030;28;20196;-69
2022/08/04 08:09:57;;;;;;;3.28;3.17;;;;;;;35.26;30.39;99543.88;5057929;28;20679;-70
2022/08/04 08:12:25;;;;;;;3.33;3.13;;;;;;;35.41;30.04;99539.53;5061188;28;20187;-70
2022/08/04 08:14:52;;;;;;;3.10;2.78;;;;;;;35.47;29.91;99543.59;5061354;28;20192;-69
2022/08/04 08:17:19;;;;;;;3.30;3.00;;;;;;;35.40;30.27;99540.69;5067071;28;20200;-70
2022/08/04 08:19:45;;;;;;;3.63;3.38;;;;;;;35.44;29.71;99536.06;5067505;28;20192;-70
2022/08/04 08:22:14;;;;;;;2.97;2.78;;;;;;;35.53;29.62;99533.88;5066513;28;20210;-69
2022/08/04 08:24:40;;;;;;;3.05;2.85;;;;;;;35.58;30.06;99528.88;5067909;28;20192;-70
2022/08/04 08:27:07;;;;;;;3.15;2.97;;;;;;;35.64;28.08;99538.50;5067978;28;20188;-69
2022/08/04 08:29:35;;;;;;;2.45;2.35;;;;;;;35.30;27.56;99532.94;5069905;28;20203;-69
2022/08/04 08:32:04;;;;;;;3.15;2.70;;;;;;;35.21;27.72;99529.53;5069789;28;20196;-68
2022/08/04 08:34:32;;;;;;;3.92;3.10;;;;;;;34.98;28.54;99512.00;5070525;28;20195;-68
2022/08/04 08:37:04;;;;;;;7.53;2.72;;;;;;;35.11;29.18;99524.56;5068290;28;20195;-69
2022/08/04 08:39:39;;;;;;;3.50;2.95;;;;;;;35.21;29.29;99535.88;5069070;28;20195;-69
2022/08/04 08:42:52;;;;;;;3.03;2.83;;;;;;;35.23;28.17;99527.22;5069592;28;20583;-69
2022/08/04 08:45:31;;;;;;;4.10;2.78;;;;;;;35.39;28.30;99528.03;5069830;28;20211;-69
2022/08/04 08:48:19;;;;;;;6.03;3.50;;;;;;;35.41;28.19;99522.94;5070012;28;20180;-69
2022/08/04 08:51:16;;;;;;;3.20;2.60;;;;;;;35.36;27.60;99521.25;5071098;28;20245;-70
2022/08/04 08:53:59;;;;;;;2.85;2.70;;;;;;;35.43;28.09;99524.19;5070180;28;20770;-69
2022/08/04 08:56:38;;;;;;;5.30;3.03;;;;;;;35.32;27.17;99519.56;5070589;28;20196;-72
2022/08/04 08:59:34;;;;;;;2.40;2.30;;;;;;;35.39;27.06;99514.22;5070517;28;20703;-74
2022/08/04 09:02:20;;;;;;;6.90;2.53;;;;;;;35.84;27.80;99525.56;5070615;28;20196;-74
2022/08/04 09:05:17;;;;;;;3.92;2.90;;;;;;;36.15;26.11;99508.81;5070106;28;20184;-74
2022/08/04 09:07:59;;;;;;;5.30;2.42;;;;;;;36.34;25.59;99511.59;5070360;28;20184;-74
2022/08/04 09:10:33;;;;;;;2.13;2.03;;;;;;;36.44;25.28;99516.53;5071102;28;20184;-74
2022/08/04 09:13:06;;;;;;;2.72;2.53;;;;;;;36.72;25.09;99517.09;5071460;28;20237;-75
2022/08/04 09:15:38;;;;;;;3.95;1.83;;;;;;;36.90;23.66;99512.66;5071723;28;20249;-74
2022/08/04 09:18:11;;;;;;;2.05;1.90;;;;;;;37.13;24.21;99506.00;5071191;28;20714;-76
2022/08/04 09:20:45;;;;;;;2.72;2.40;;;;;;;37.33;23.50;99508.66;5071618;28;20184;-76
2022/08/04 09:23:28;;;;;;;3.60;1.83;;;;;;;37.12;23.72;99501.56;5071127;28;20192;-76
2022/08/04 09:26:01;;;;;;;4.55;2.50;;;;;;;36.97;24.58;99498.94;5070897;28;20300;-75
2022/08/04 09:28:35;;;;;;;2.67;2.30;;;;;;;37.18;24.11;99499.31;5072162;28;20249;-76
2022/08/04 09:31:09;;;;;;;2.40;2.30;;;;;;;37.35;23.85;99501.56;5071448;28;20221;-75
2022/08/04 09:33:47;;;;;;;4.60;2.28;;;;;;;37.58;23.79;99498.72;5070941;28;20180;-75
2022/08/04 09:36:26;;;;;;;2.50;2.30;;;;;;;37.26;23.78;99489.94;5071189;28;20672;-76
2022/08/04 09:39:05;;;;;;;2.67;1.90;;;;;;;37.44;23.04;99495.75;5071051;28;20249;-75
2022/08/04 09:41:41;;;;;;;2.35;2.00;;;;;;;37.36;22.81;99486.53;5071253;28;20261;-76
2022/08/04 09:44:24;;;;;;;4.20;1.80;;;;;;;37.48;22.74;99494.66;5072004;28;20233;-75
2022/08/04 09:46:58;;;;;;;1.92;1.83;;;;;;;37.74;21.61;99491.06;5071204;28;20215;-74
2022/08/04 09:49:33;;;;;;;2.05;1.95;;;;;;;37.96;21.69;99490.97;5071996;28;20180;-74
2022/08/04 09:52:09;;;;;;;1.80;1.70;;;;;;;37.98;21.25;99485.84;5072086;28;20215;-76
2022/08/04 09:54:48;;;;;;;4.63;2.03;;;;;;;37.64;22.12;99486.97;5073795;28;20694;-76
2022/08/04 09:57:30;;;;;;;4.72;1.75;;;;;;;37.85;22.50;99478.94;5072820;28;20198;-76
2022/08/04 10:00:05;;;;;;;1.83;1.70;;;;;;;37.37;22.64;99481.78;5073910;28;20728;-77
2022/08/04 10:02:35;;;;;;;3.15;2.00;;;;;;;37.48;22.88;99478.00;5074312;28;20191;-76
2022/08/04 10:05:05;;;;;;;2.13;2.03;;;;;;;37.59;21.99;99475.41;5073409;28;20188;-76
2022/08/04 10:07:55;;;;;;;3.85;2.08;;;;;;;37.84;22.12;99469.00;5072535;28;20200;-76
2022/08/04 10:10:33;;;;;;;4.00;2.40;;;;;;;38.02;21.53;99475.59;5072546;28;20245;-77
2022/08/04 10:13:21;;;;;;;2.63;1.83;;;;;;;38.06;21.41;99468.13;5068429;28;20203;-75
2022/08/04 10:15:58;;;;;;;4.55;1.90;;;;;;;38.18;21.54;99475.41;5069257;28;20545;-77
2022/08/04 10:18:43;;;;;;;3.13;2.00;;;;;;;38.26;20.87;99472.34;5067550;28;20192;-75
2022/08/04 10:21:18;;;;;;;7.03;2.17;;;;;;;38.42;20.91;99461.00;5070588;28;20199;-77
2022/08/04 10:24:00;;;;;;;1.90;1.80;;;;;;;38.23;21.05;99453.66;5070593;28;20818;-77
2022/08/04 10:26:37;;;;;;;3.03;2.03;;;;;;;37.61;22.55;99457.22;5069169;28;20208;-77
2022/08/04 10:29:07;;;;;;;5.90;2.20;;;;;;;37.31;22.19;99445.25;5070000;28;20180;-76
2022/08/04 10:31:39;;;;;;;2.45;1.77;;;;;;;37.41;22.74;99450.19;5068687;28;20664;-79
2022/08/04 10:34:12;;;;;;;4.47;1.80;;;;;;;37.49;22.53;99446.34;5071672;28;20199;-76
2022/08/04 10:36:56;;;;;;;4.00;2.28;;;;;;;37.62;22.28;99442.19;5069218;28;20680;-77
2022/08/04 10:39:29;;;;;;;2.33;2.10;;;;;;;37.58;22.24;99440.50;5069333;28;20202;-78
2022/08/04 10:42:07;;;;;;;1.95;1.85;;;;;;;37.38;22.28;99428.75;5072068;28;20184;-76
2022/08/04 10:44:52;;;;;;;3.08;1.92;;;;;;;36.96;22.81;99433.63;5071395;28;20257;-77
2022/08/04 10:47:27;;;;;;;2.00;1.90;;;;;;;37.08;21.85;99436.19;5071704;28;20203;-77
2022/08/04 10:49:56;;;;;;;2.35;1.83;;;;;;;36.99;22.69;99419.03;5073430;28;20198;-77
2022/08/04 10:52:30;;;;;;;9.40;2.63;;;;;;;37.10;22.59;99419.97;5071058;28;20200;-78
2022/08/04 10:55:05;;;;;;;1.95;1.80;;;;;;;37.36;22.36;99428.34;5071943;28;20199;-74
2022/08/04 10:57:36;;;;;;;1.70;1.60;;;;;;;37.52;21.89;99423.41;5072923;28;20227;-73
2022/08/04 11:00:06;;;;;;;2.75;1.55;;;;;;;37.40;22.31;99426.41;5071833;28;20195;-75
2022/08/04 11:02:45;;;;;;;1.85;1.75;;;;;;;37.51;21.62;99426.56;5072714;28;20283;-75
2022/08/04 11:05:24;;;;;;;5.80;1.60;;;;;;;37.67;21.19;99425.19;5072826;28;20207;-74
2022/08/04 11:07:57;;;;;;;9.07;2.53;;;;;;;37.70;21.05;99418.91;5072975;28;20184;-77
2022/08/04 11:10:25;;;;;;;4.53;2.10;;;;;;;37.85;21.29;99417.91;5071928;28;20640;-76
2022/08/04 11:12:57;;;;;;;7.85;2.00;;;;;;;37.98;21.34;99418.44;5071134;28;20192;-77
2022/08/04 11:15:30;;;;;;;2.55;2.33;;;;;;;37.85;20.93;99415.13;5071240;28;20704;-76
2022/08/04 11:18:05;;;;;;;4.28;2.28;;;;;;;37.71;21.66;99414.94;5071334;28;20184;-77
2022/08/04 11:20:39;;;;;;;13.32;3.25;;;;;;;37.81;21.08;99403.19;5070836;28;20188;-76
2022/08/04 11:23:09;;;;;;;10.77;2.25;;;;;;;37.87;20.99;99401.69;5071823;28;20565;-77
2022/08/04 11:25:50;;;;;;;2.05;1.88;;;;;;;37.55;20.35;99394.91;5071684;28;20184;-76
2022/08/04 11:28:26;;;;;;;6.90;2.58;;;;;;;37.38;21.34;99392.72;5070770;28;20721;-76
2022/08/04 11:30:59;;;;;;;4.57;2.28;;;;;;;37.23;21.76;99399.22;5070550;28;20188;-76
2022/08/04 11:33:38;;;;;;;4.05;1.63;;;;;;;37.16;21.53;99394.38;5071235;28;20199;-76
2022/08/04 11:36:14;;;;;;;1.83;1.67;;;;;;;37.13;21.05;99389.59;5070226;28;20184;-77
2022/08/04 11:38:50;;;;;;;2.03;1.85;;;;;;;37.06;21.53;99383.09;5070912;28;20184;-76
2022/08/04 11:41:22;;;;;;;3.17;2.22;;;;;;;36.96;21.38;99386.53;5071507;28;20245;-77
2022/08/04 11:43:55;;;;;;;3.08;1.95;;;;;;;36.99;21.18;99383.03;5071368;28;20644;-74
2022/08/04 11:46:28;;;;;;;2.38;2.10;;;;;;;37.06;21.32;99380.34;5071528;28;20211;-75
2022/08/04 11:49:03;;;;;;;2.08;1.83;;;;;;;37.14;20.77;99376.53;5071488;28;20291;-76
2022/08/04 11:51:33;;;;;;;2.72;1.70;;;;;;;37.25;20.67;99369.19;5071407;28;20184;-72
2022/08/04 11:54:01;;;;;;;2.10;1.90;;;;;;;37.34;20.60;99355.81;5072171;28;20660;-74
2022/08/04 11:56:28;;;;;;;4.38;2.17;;;;;;;37.46;20.53;99361.13;5070608;28;20200;-73
2022/08/04 11:58:57;;;;;;;2.65;2.28;;;;;;;37.59;21.14;99356.97;5070350;28;20232;-75
2022/08/04 12:01:34;;;;;;;7.45;2.60;;;;;;;37.28;21.55;99351.81;5069981;28;20194;-76
2022/08/04 12:04:10;;;;;;;4.18;1.70;;;;;;;36.95;21.75;99343.41;5068247;28;20184;-77
2022/08/04 12:06:47;;;;;;;3.30;1.90;;;;;;;37.26;21.55;99348.59;5069323;28;20204;-78
2022/08/04 12:09:22;;;;;;;2.38;1.90;;;;;;;37.31;21.68;99345.47;5069438;28;20640;-76
2022/08/04 12:11:55;;;;;;;2.95;2.15;;;;;;;37.57;21.67;99347.41;5068994;28;20647;-77
2022/08/04 12:14:29;;;;;;;2.10;1.98;;;;;;;37.52;21.56;99351.31;5069040;28;20200;-78
2022/08/04 12:17:00;;;;;;;7.47;2.10;;;;;;;37.29;21.54;99347.84;5069713;28;20188;-77
2022/08/04 12:19:35;;;;;;;3.30;1.90;;;;;;;37.32;20.69;99344.34;5070560;28;20648;-77